Etusivu
METAR-TAF:

METAR-TAF

Lentoasemat :

Västerås, Ruotsi

Västeråsin lentoasema

Leveyspiiri: 59-35N, Pituuspiiri: 016-38E, korkeus merenpinnasta: 6 m

Tämänhetkinen sää

Tämä raportti tehtiin 17 minuuttia sitten, kello 11.20 UTC
Tuuli 10 kn pohjoisesta/koillisesta, vaihdellen pohjoisen ja idän välillä
Lämpötila 16°C
Kosteus 48%
Ilmanpaine 1013 hPa
Näkyvyys 10 km tai enemmän
ei pilviä alle 1500 m:ssä eikä cumulonimbus-pilviä

METAR: ESOW 291120Z 03010KT 350V080 CAVOK 16/05 Q1013

Aika: 13:37 (11:37 UTC)

Sääennuste

Tämä raportti tehtiin 3 tuntia ja 7 minuuttia sitten, kello 08.30 UTC
Ennuste voimassa 29. päivästä klo 09 UTC - 29. päivään klo 18 UTC
Tuuli 16 kn koillisesta
Näkyvyys 10 km tai enemmän
ei pilviä alle 1500 m:ssä eikä cumulonimbus-pilviä

TAF: ESOW 290830Z 2909/2918 04016KT CAVOK

Säähavainnot ja -ennusteet yli 4000 lentoasemalta (METAR- ja TAF-raportit).

Käytössä olevat sääasemat on merkitty karttaan keltaisilla ja punaisilla pisteillä.

Aseta hiiri pisteen päälle nähdäksesi sääaseman nimen.

Klikkaa sitten nähdäksesi säähavainnot ja -ennusteet.

Kartan vaihtaminen: klikkaa mustalla rastilla varustettuja vihreitä pisteitä, niin voit zoomata sisään; viivalla varustettua vihreää pistettä, niin voit zoomata ulos tai vihreitä nuolia, niin pääset viereisille kartoille.


METAR-TAF: